CNU6 weather

Huntsville Seaplane Base
Ontario, Canada

Public forecast

Using degrees Celsius for public forecast. Weather courtesy of forecast.io.

Closest aviation weather report (METAR) to Huntsville Seaplane Base

Closest report is Muskoka Airport, 20.7 nm (38.3 km) S. Retrieved 2020/05/27 01:00 UTC (41 minutes ago):

CYQA 270100Z AUTO 13002KT 9SM OVC130 23/21 A3005 RMK SLP175 DENSITY ALT 1900FT

Closest aviation forecast (TAF) to Huntsville Seaplane Base

Closest forecast is Muskoka Airport, 20.7 nm (38.3 km) S. Retrieved 2020/05/26 20:00 UTC (6 hours ago):

TAF CYQA 261934Z 2620/2702 18010KT P6SM SCT050 TEMPO 2620/2624 VRB15G25KT 2SM TSRA BR OVC040CB FM270000 19005KT P6SM SCT050 TEMPO 2700/2702 4SM -SHRA BR BKN050 RMK FCST BASED ON AUTO OBS NXT FCST WILL BE ISSUED AT 271145Z